createdAt,value
2022-08-31T00:01:24.300Z,65.90
2022-08-31T00:03:54.533Z,65.60
2022-08-31T00:06:22.107Z,65.80
2022-08-31T00:08:49.681Z,65.60
2022-08-31T00:11:17.266Z,65.90
2022-08-31T00:13:45.608Z,64.60
2022-08-31T00:16:13.214Z,64.50
2022-08-31T00:18:40.776Z,64.80
2022-08-31T00:21:08.349Z,64.90
2022-08-31T00:23:35.934Z,64.90
2022-08-31T00:26:03.558Z,65.20
2022-08-31T00:28:31.130Z,65.50
2022-08-31T00:30:58.704Z,65.80
2022-08-31T00:33:26.308Z,66.10
2022-08-31T00:35:54.810Z,67.60
2022-08-31T00:38:22.312Z,67.60
2022-08-31T00:40:49.970Z,68.70
2022-08-31T00:43:36.759Z,70.00
2022-08-31T00:46:04.437Z,70.10
2022-08-31T00:48:31.937Z,69.60
2022-08-31T00:51:00.280Z,66.70
2022-08-31T00:53:27.873Z,66.60
2022-08-31T00:55:56.223Z,65.70
2022-08-31T00:58:23.785Z,65.70
2022-08-31T01:00:51.449Z,65.70
2022-08-31T01:03:19.197Z,65.60
2022-08-31T01:05:46.567Z,65.10
2022-08-31T01:08:14.160Z,65.20
2022-08-31T01:10:42.493Z,67.40
2022-08-31T01:13:10.057Z,67.30
2022-08-31T01:15:37.655Z,67.00
2022-08-31T01:18:05.998Z,66.70
2022-08-31T01:20:39.048Z,66.70
2022-08-31T01:23:09.358Z,66.50
2022-08-31T01:25:36.932Z,66.30
2022-08-31T01:28:07.263Z,66.00
2022-08-31T01:30:34.857Z,65.30
2022-08-31T01:33:02.440Z,64.90
2022-08-31T01:35:30.783Z,64.80
2022-08-31T01:37:58.378Z,64.80
2022-08-31T01:40:26.781Z,64.00
2022-08-31T01:42:54.293Z,64.00
2022-08-31T01:45:21.888Z,63.50
2022-08-31T01:47:50.229Z,62.20
2022-08-31T01:50:17.803Z,62.20
2022-08-31T01:52:45.397Z,62.00
2022-08-31T01:55:12.966Z,62.10
2022-08-31T01:57:40.540Z,62.40
2022-08-31T02:00:08.382Z,62.40
2022-08-31T02:02:36.009Z,62.30
2022-08-31T02:05:03.529Z,62.30
2022-08-31T02:07:31.133Z,62.30
2022-08-31T02:09:59.605Z,62.50
2022-08-31T02:12:27.177Z,62.50
2022-08-31T02:14:55.548Z,62.30
2022-08-31T02:17:23.890Z,61.40
2022-08-31T02:19:51.472Z,61.90
2022-08-31T02:22:19.067Z,62.10
2022-08-31T02:24:46.640Z,62.20
2022-08-31T02:27:14.205Z,62.50
2022-08-31T02:29:41.820Z,62.70
2022-08-31T02:32:09.411Z,62.90
2022-08-31T02:34:36.946Z,63.20
2022-08-31T02:37:05.318Z,62.90
2022-08-31T02:39:33.139Z,62.80
2022-08-31T02:42:00.713Z,63.10
2022-08-31T02:44:28.307Z,63.40
2022-08-31T02:46:56.648Z,64.10
2022-08-31T02:49:24.232Z,63.80
2022-08-31T02:51:51.816Z,64.00
2022-08-31T02:54:20.170Z,64.10
2022-08-31T02:56:47.738Z,64.10
2022-08-31T02:59:16.110Z,65.00
2022-08-31T03:01:43.873Z,64.20
2022-08-31T03:04:12.027Z,64.50
2022-08-31T03:06:39.620Z,64.50
2022-08-31T03:09:07.962Z,65.30
2022-08-31T03:11:35.537Z,64.60
2022-08-31T03:14:03.484Z,64.60
2022-08-31T03:16:31.049Z,64.30
2022-08-31T03:18:58.623Z,63.70
2022-08-31T03:21:26.227Z,63.40
2022-08-31T03:23:53.841Z,64.20
2022-08-31T03:26:21.404Z,63.80
2022-08-31T03:28:48.988Z,64.00
2022-08-31T03:31:17.366Z,64.40
2022-08-31T03:33:44.934Z,64.40
2022-08-31T03:36:12.489Z,64.10
2022-08-31T03:38:40.831Z,64.70
2022-08-31T03:41:08.465Z,64.60
2022-08-31T03:43:36.073Z,64.50
2022-08-31T03:46:03.695Z,64.60
2022-08-31T03:48:31.225Z,64.40
2022-08-31T03:50:58.810Z,64.80
2022-08-31T03:53:26.597Z,65.30
2022-08-31T03:55:53.954Z,65.70
2022-08-31T03:58:21.537Z,66.10
2022-08-31T04:00:49.890Z,66.70
2022-08-31T04:03:17.485Z,66.60
2022-08-31T04:05:45.047Z,66.50
2022-08-31T04:08:12.612Z,66.60
2022-08-31T04:10:40.186Z,66.50
2022-08-31T04:13:08.096Z,66.80
2022-08-31T04:15:38.442Z,67.20
2022-08-31T04:18:05.980Z,67.50
2022-08-31T04:20:36.547Z,67.90
2022-08-31T04:23:04.112Z,68.10
2022-08-31T04:25:31.699Z,68.40
2022-08-31T04:27:59.279Z,68.00
2022-08-31T04:30:26.853Z,68.50
2022-08-31T04:32:54.457Z,69.00
2022-08-31T04:35:22.800Z,70.10
2022-08-31T04:37:50.374Z,70.10
2022-08-31T04:40:19.087Z,71.00
2022-08-31T04:42:46.595Z,71.00
2022-08-31T04:45:14.229Z,71.20
2022-08-31T04:47:41.813Z,71.60
2022-08-31T04:50:09.486Z,71.20
2022-08-31T04:52:37.069Z,71.50
2022-08-31T04:55:04.639Z,72.30
2022-08-31T04:57:32.232Z,72.20
2022-08-31T04:59:59.805Z,73.00
2022-08-31T05:02:27.426Z,73.80
2022-08-31T05:04:55.338Z,74.70
2022-08-31T05:07:22.921Z,75.30
2022-08-31T05:09:51.273Z,76.70
2022-08-31T05:12:18.868Z,76.70
2022-08-31T05:14:47.210Z,78.10
2022-08-31T05:17:15.209Z,78.10
2022-08-31T05:19:42.417Z,78.80
2022-08-31T05:22:10.001Z,79.70
2022-08-31T05:24:37.585Z,79.40
2022-08-31T05:27:05.996Z,80.50
2022-08-31T05:29:33.579Z,80.40
2022-08-31T05:32:01.153Z,81.10
2022-08-31T05:34:28.798Z,81.60
2022-08-31T05:36:56.558Z,82.30
2022-08-31T05:39:24.146Z,82.10
2022-08-31T05:41:51.745Z,82.70
2022-08-31T05:44:19.330Z,83.40
2022-08-31T05:46:52.394Z,84.20
2022-08-31T05:49:14.498Z,84.20
2022-08-31T05:51:42.880Z,86.10
2022-08-31T05:54:10.424Z,86.10
2022-08-31T05:56:38.806Z,90.10
2022-08-31T05:59:07.157Z,90.50
2022-08-31T06:01:34.794Z,90.50
2022-08-31T06:04:02.346Z,91.30
2022-08-31T06:06:29.928Z,92.00
2022-08-31T06:08:57.514Z,92.70
2022-08-31T06:11:26.086Z,93.40
2022-08-31T06:13:53.661Z,94.30
2022-08-31T06:16:21.291Z,95.20
2022-08-31T06:18:52.224Z,96.80
2022-08-31T06:21:19.811Z,96.80
2022-08-31T06:23:47.372Z,97.50
2022-08-31T06:26:14.996Z,98.10
2022-08-31T06:28:45.339Z,99.00
2022-08-31T06:31:15.608Z,99.10
2022-08-31T06:33:43.251Z,99.60
2022-08-31T06:36:10.824Z,99.90
2022-08-31T06:38:39.174Z,99.90
2022-08-31T06:41:15.681Z,99.90
2022-08-31T06:43:43.262Z,99.90
2022-08-31T06:46:10.896Z,99.90
2022-08-31T06:48:38.450Z,99.90
2022-08-31T06:51:06.814Z,99.90
2022-08-31T06:53:37.231Z,99.90
2022-08-31T06:56:16.492Z,99.90
2022-08-31T06:58:35.543Z,99.90
2022-08-31T07:01:06.671Z,99.90
2022-08-31T07:03:37.246Z,99.90
2022-08-31T07:06:04.821Z,99.90
2022-08-31T07:08:32.404Z,99.90
2022-08-31T07:11:00.993Z,99.90
2022-08-31T07:13:28.586Z,99.90
2022-08-31T07:16:06.239Z,99.90
2022-08-31T07:18:33.718Z,99.90
2022-08-31T07:21:11.148Z,99.90
2022-08-31T07:23:38.733Z,99.90
2022-08-31T07:26:06.296Z,99.90
2022-08-31T07:28:34.187Z,99.90
2022-08-31T07:31:01.839Z,99.90
2022-08-31T07:33:30.112Z,99.90
2022-08-31T07:35:57.716Z,99.90
2022-08-31T07:38:43.525Z,99.90
2022-08-31T07:41:29.266Z,99.90
2022-08-31T07:43:57.617Z,99.90
2022-08-31T07:46:25.251Z,99.90
2022-08-31T07:48:52.825Z,99.90
2022-08-31T07:51:20.400Z,99.90
2022-08-31T07:53:47.975Z,99.90
2022-08-31T07:56:15.576Z,99.90
2022-08-31T07:58:43.173Z,99.90
2022-08-31T08:01:10.735Z,99.90
2022-08-31T08:03:38.624Z,99.90
2022-08-31T08:06:06.203Z,99.90
2022-08-31T08:08:34.555Z,99.90
2022-08-31T08:11:03.069Z,99.90
2022-08-31T08:13:31.412Z,99.90
2022-08-31T08:15:59.035Z,99.90
2022-08-31T08:18:27.367Z,99.90
2022-08-31T08:20:55.728Z,99.90
2022-08-31T08:23:27.881Z,99.90
2022-08-31T08:25:51.685Z,99.90
2022-08-31T08:28:38.521Z,99.90
2022-08-31T08:30:50.338Z,99.90
2022-08-31T08:33:18.735Z,99.90
2022-08-31T08:35:45.509Z,99.90
2022-08-31T08:38:13.858Z,99.90
2022-08-31T08:40:44.029Z,99.90
2022-08-31T08:43:11.618Z,99.90
2022-08-31T08:45:39.158Z,99.90
2022-08-31T08:48:06.730Z,99.90
2022-08-31T08:50:34.299Z,99.90
2022-08-31T08:53:01.903Z,99.90
2022-08-31T08:55:36.330Z,99.90
2022-08-31T08:58:07.360Z,99.90
2022-08-31T09:00:35.706Z,99.90
2022-08-31T09:03:24.868Z,99.90
2022-08-31T09:06:00.911Z,99.90
2022-08-31T09:08:37.336Z,99.90
2022-08-31T09:11:14.700Z,99.90
2022-08-31T09:13:42.303Z,99.90
2022-08-31T09:16:21.415Z,99.90
2022-08-31T09:18:57.506Z,99.90
2022-08-31T09:21:30.791Z,99.90
2022-08-31T09:24:10.131Z,99.90
2022-08-31T09:26:56.335Z,99.90
2022-08-31T09:29:23.958Z,99.90
2022-08-31T09:31:52.740Z,99.90
2022-08-31T09:34:29.907Z,99.90
2022-08-31T09:37:22.196Z,99.90
2022-08-31T09:39:50.724Z,99.90
2022-08-31T09:42:18.319Z,99.90
2022-08-31T09:44:49.604Z,99.90
2022-08-31T09:47:44.276Z,99.90
2022-08-31T09:50:11.850Z,99.90
2022-08-31T09:52:57.777Z,99.90
2022-08-31T09:55:25.365Z,99.90
2022-08-31T09:57:56.188Z,99.90
2022-08-31T10:00:36.459Z,99.90
2022-08-31T10:03:23.200Z,99.90
2022-08-31T10:05:50.748Z,99.90
2022-08-31T10:08:23.699Z,99.90
2022-08-31T10:10:52.061Z,99.90
2022-08-31T10:13:40.953Z,99.90
2022-08-31T10:16:09.345Z,99.90
2022-08-31T10:18:39.320Z,99.90
2022-08-31T10:21:07.794Z,99.90
2022-08-31T10:23:34.558Z,99.90
2022-08-31T10:26:02.922Z,99.90
2022-08-31T10:28:45.302Z,99.90
2022-08-31T10:31:15.588Z,99.90
2022-08-31T10:34:01.336Z,99.90
2022-08-31T10:36:29.982Z,99.90
2022-08-31T10:38:57.250Z,99.90
2022-08-31T10:41:24.863Z,99.90
2022-08-31T10:44:13.164Z,99.90
2022-08-31T10:46:40.867Z,99.90
2022-08-31T10:49:08.381Z,99.90
2022-08-31T10:51:41.996Z,99.90
2022-08-31T10:54:12.038Z,99.90
2022-08-31T10:56:49.310Z,99.90
2022-08-31T10:59:35.975Z,99.90
2022-08-31T11:02:28.233Z,99.90
2022-08-31T11:04:58.949Z,99.90
2022-08-31T11:07:26.493Z,99.90
2022-08-31T11:10:09.109Z,99.90
2022-08-31T11:12:36.715Z,99.90
2022-08-31T11:15:31.531Z,99.90
2022-08-31T11:18:19.946Z,99.90
2022-08-31T11:20:50.800Z,99.90
2022-08-31T11:23:21.819Z,99.90
2022-08-31T11:25:58.164Z,99.90
2022-08-31T11:28:40.790Z,99.90
2022-08-31T11:31:26.481Z,99.90
2022-08-31T11:34:14.622Z,99.90
2022-08-31T11:36:43.476Z,99.90
2022-08-31T11:39:11.075Z,99.90
2022-08-31T11:41:44.384Z,99.90
2022-08-31T11:44:12.253Z,99.90
2022-08-31T11:46:40.726Z,99.90
2022-08-31T11:49:08.260Z,99.90
2022-08-31T11:51:41.932Z,99.90
2022-08-31T11:54:12.646Z,99.90
2022-08-31T11:56:40.219Z,99.90
2022-08-31T11:59:34.131Z,99.80
2022-08-31T12:02:00.467Z,99.80
2022-08-31T12:04:33.888Z,99.40
2022-08-31T12:07:02.271Z,99.90
2022-08-31T12:09:48.493Z,99.70
2022-08-31T12:12:40.787Z,99.70
2022-08-31T12:15:11.554Z,99.30
2022-08-31T12:17:44.539Z,98.80
2022-08-31T12:20:31.276Z,96.70
2022-08-31T12:23:35.819Z,96.70
2022-08-31T12:26:27.501Z,96.40
2022-08-31T12:29:04.831Z,95.70
2022-08-31T12:31:32.507Z,95.60
2022-08-31T12:34:12.567Z,95.90
2022-08-31T12:36:41.146Z,95.90
2022-08-31T12:39:14.523Z,95.60
2022-08-31T12:41:42.124Z,94.80
2022-08-31T12:44:14.092Z,93.30
2022-08-31T12:46:38.903Z,93.10
2022-08-31T12:49:27.969Z,93.00
2022-08-31T12:51:58.544Z,92.80
2022-08-31T12:54:35.712Z,92.60
2022-08-31T12:57:15.344Z,91.30
2022-08-31T13:00:01.178Z,91.10
2022-08-31T13:02:19.709Z,90.10
2022-08-31T13:04:47.190Z,89.40
2022-08-31T13:07:14.795Z,85.10
2022-08-31T13:09:42.370Z,84.20
2022-08-31T13:12:09.945Z,83.30
2022-08-31T13:14:40.490Z,83.00
2022-08-31T13:17:11.144Z,81.40
2022-08-31T13:19:39.371Z,81.60
2022-08-31T13:22:09.820Z,81.60
2022-08-31T13:24:37.412Z,82.20
2022-08-31T13:27:05.736Z,82.00
2022-08-31T13:29:33.359Z,81.80
2022-08-31T13:32:00.930Z,81.40
2022-08-31T13:34:28.507Z,80.50
2022-08-31T13:36:56.168Z,80.10
2022-08-31T13:39:26.659Z,80.80
2022-08-31T13:41:54.249Z,79.50
2022-08-31T13:44:21.887Z,78.60
2022-08-31T13:46:50.239Z,76.00
2022-08-31T13:49:27.244Z,76.00
2022-08-31T13:51:54.982Z,74.40
2022-08-31T13:54:32.123Z,71.80
2022-08-31T13:57:11.680Z,71.30
2022-08-31T13:59:39.284Z,70.70
2022-08-31T14:02:15.986Z,70.20
2022-08-31T14:04:49.105Z,70.10
2022-08-31T14:07:25.111Z,69.30
2022-08-31T14:10:04.318Z,68.80
2022-08-31T14:12:44.926Z,68.50
2022-08-31T14:15:15.537Z,68.40
2022-08-31T14:17:43.190Z,67.60
2022-08-31T14:20:29.355Z,66.70
2022-08-31T14:22:56.961Z,65.70
2022-08-31T14:25:24.533Z,64.50
2022-08-31T14:27:52.143Z,61.70
2022-08-31T14:30:19.704Z,61.00
2022-08-31T14:32:47.273Z,61.40
2022-08-31T14:35:14.896Z,60.70
2022-08-31T14:37:42.484Z,61.40
2022-08-31T14:40:10.292Z,60.40
2022-08-31T14:42:37.811Z,60.40
2022-08-31T14:45:11.210Z,61.70
2022-08-31T14:47:41.992Z,61.50
2022-08-31T14:50:09.565Z,61.40
2022-08-31T14:52:37.247Z,59.80
2022-08-31T14:55:04.850Z,59.20
2022-08-31T14:57:32.421Z,59.40
2022-08-31T15:00:00.073Z,58.60
2022-08-31T15:02:27.778Z,59.10
2022-08-31T15:04:58.178Z,57.80
2022-08-31T15:07:25.776Z,58.20
2022-08-31T15:09:53.411Z,57.90
2022-08-31T15:12:20.982Z,57.70
2022-08-31T15:14:48.587Z,57.00
2022-08-31T15:17:19.870Z,56.50
2022-08-31T15:19:45.309Z,55.90
2022-08-31T15:22:12.880Z,55.80
2022-08-31T15:24:43.187Z,55.50
2022-08-31T15:27:10.755Z,56.50
2022-08-31T15:29:38.346Z,55.20
2022-08-31T15:32:06.792Z,53.90
2022-08-31T15:34:34.433Z,53.90
2022-08-31T15:37:02.019Z,53.80
2022-08-31T15:39:32.085Z,53.30
2022-08-31T15:41:59.679Z,53.00
2022-08-31T15:44:27.253Z,52.60
2022-08-31T15:47:13.071Z,51.90
2022-08-31T15:49:41.723Z,56.50
2022-08-31T15:52:09.297Z,56.50
2022-08-31T15:54:38.064Z,57.60
2022-08-31T15:57:05.667Z,59.70
2022-08-31T15:59:36.913Z,64.10
2022-08-31T16:02:04.582Z,64.10
2022-08-31T16:04:32.125Z,66.30
2022-08-31T16:07:00.476Z,70.30
2022-08-31T16:09:28.444Z,70.20
2022-08-31T16:11:56.009Z,71.50
2022-08-31T16:14:23.588Z,73.50
2022-08-31T16:16:52.303Z,74.40
2022-08-31T16:19:34.719Z,74.40
2022-08-31T16:21:48.177Z,74.60
2022-08-31T16:24:15.849Z,74.60
2022-08-31T16:26:43.426Z,75.30
2022-08-31T16:29:11.006Z,75.30
2022-08-31T16:31:38.660Z,74.90
2022-08-31T16:34:06.209Z,75.20
2022-08-31T16:36:34.564Z,79.40
2022-08-31T16:39:05.105Z,79.40
2022-08-31T16:41:32.688Z,79.40
2022-08-31T16:44:19.090Z,80.20
2022-08-31T16:46:40.563Z,80.40
2022-08-31T16:49:13.616Z,81.50
2022-08-31T16:51:43.623Z,82.90
2022-08-31T16:54:08.794Z,84.40
2022-08-31T16:56:37.136Z,86.70
2022-08-31T16:59:04.748Z,86.70
2022-08-31T17:01:32.356Z,87.10
2022-08-31T17:04:02.357Z,87.90
2022-08-31T17:06:29.981Z,88.60
2022-08-31T17:08:58.333Z,90.10
2022-08-31T17:11:25.898Z,90.10
2022-08-31T17:13:55.292Z,90.40
2022-08-31T17:16:22.934Z,90.60
2022-08-31T17:18:51.220Z,90.70
2022-08-31T17:21:18.832Z,90.70
2022-08-31T17:23:46.397Z,89.60
2022-08-31T17:26:13.972Z,88.20
2022-08-31T17:28:41.980Z,88.00
2022-08-31T17:31:09.596Z,88.90
2022-08-31T17:33:37.917Z,89.90
2022-08-31T17:36:09.109Z,89.80
2022-08-31T17:38:36.652Z,90.00
2022-08-31T17:41:04.226Z,90.10
2022-08-31T17:43:31.850Z,89.40
2022-08-31T17:45:59.424Z,89.50
2022-08-31T17:48:27.764Z,90.40
2022-08-31T17:50:56.569Z,90.40
2022-08-31T17:53:24.153Z,89.80
2022-08-31T17:55:55.292Z,89.50
2022-08-31T17:58:24.057Z,89.30
2022-08-31T18:00:51.685Z,89.30
2022-08-31T18:03:19.974Z,89.40
2022-08-31T18:05:47.597Z,90.00
2022-08-31T18:08:15.228Z,90.20
2022-08-31T18:10:42.747Z,90.10
2022-08-31T18:13:10.943Z,89.90
2022-08-31T18:15:38.515Z,90.20
2022-08-31T18:18:06.091Z,90.50
2022-08-31T18:20:35.465Z,91.30
2022-08-31T18:23:03.041Z,91.30
2022-08-31T18:25:37.052Z,92.60
2022-08-31T18:28:02.032Z,92.60
2022-08-31T18:30:32.324Z,93.20
2022-08-31T18:32:59.898Z,93.90
2022-08-31T18:35:27.542Z,94.90
2022-08-31T18:37:55.115Z,95.80
2022-08-31T18:40:40.880Z,97.50
2022-08-31T18:43:26.487Z,97.90
2022-08-31T18:45:54.121Z,98.60
2022-08-31T18:48:25.101Z,99.40
2022-08-31T18:50:49.295Z,99.90
2022-08-31T18:53:29.351Z,99.90
2022-08-31T18:55:44.516Z,99.90
2022-08-31T18:58:12.091Z,99.90
2022-08-31T19:00:39.753Z,99.90
2022-08-31T19:03:07.244Z,99.90
2022-08-31T19:05:34.825Z,99.90
2022-08-31T19:08:02.444Z,99.90
2022-08-31T19:10:30.028Z,99.90
2022-08-31T19:12:57.598Z,99.90
2022-08-31T19:15:35.419Z,99.90
2022-08-31T19:17:53.552Z,99.90
2022-08-31T19:20:21.152Z,99.90
2022-08-31T19:22:48.760Z,99.90
2022-08-31T19:25:18.333Z,99.90
2022-08-31T19:27:43.918Z,99.90
2022-08-31T19:30:12.436Z,99.90
2022-08-31T19:32:40.012Z,99.90
2022-08-31T19:35:07.794Z,99.90
2022-08-31T19:37:36.272Z,99.90
2022-08-31T19:40:05.681Z,99.90
2022-08-31T19:47:27.441Z,99.90
2022-08-31T19:49:55.004Z,99.90
2022-08-31T19:52:22.623Z,99.90
2022-08-31T19:54:50.196Z,99.90
2022-08-31T19:57:17.772Z,99.90
2022-08-31T19:59:45.443Z,99.90
2022-08-31T20:02:13.028Z,99.90
2022-08-31T20:04:40.537Z,99.90
2022-08-31T20:07:08.159Z,99.90
2022-08-31T20:09:35.744Z,99.90
2022-08-31T20:12:03.377Z,99.90
2022-08-31T20:14:31.010Z,99.90
2022-08-31T20:16:58.584Z,99.90
2022-08-31T20:19:26.921Z,99.90
2022-08-31T20:21:54.547Z,99.90
2022-08-31T20:24:24.856Z,99.90
2022-08-31T20:26:53.199Z,99.90
2022-08-31T20:29:20.841Z,99.90
2022-08-31T20:31:48.526Z,99.90
2022-08-31T20:34:19.209Z,99.90
2022-08-31T20:36:44.435Z,99.90
2022-08-31T20:39:12.011Z,99.90
2022-08-31T20:41:42.080Z,99.90
2022-08-31T20:44:13.351Z,99.90
2022-08-31T20:46:59.250Z,99.90
2022-08-31T20:49:26.843Z,99.90
2022-08-31T20:51:54.409Z,99.90
2022-08-31T20:54:21.982Z,99.90
2022-08-31T20:56:51.308Z,99.90
2022-08-31T20:59:18.883Z,99.90
2022-08-31T21:01:46.495Z,99.90
2022-08-31T21:04:14.086Z,99.90
2022-08-31T21:06:41.647Z,99.90
2022-08-31T21:09:09.220Z,99.90
2022-08-31T21:11:37.423Z,99.90
2022-08-31T21:14:04.990Z,99.90
2022-08-31T21:16:32.652Z,99.90
2022-08-31T21:19:00.313Z,99.90
2022-08-31T21:21:28.574Z,99.90
2022-08-31T21:23:56.148Z,99.90
2022-08-31T21:26:23.772Z,99.90
2022-08-31T21:28:51.344Z,99.90
2022-08-31T21:31:28.948Z,99.90
2022-08-31T21:33:46.540Z,99.90
2022-08-31T21:36:14.126Z,99.90
2022-08-31T21:38:41.751Z,99.90
2022-08-31T21:41:09.348Z,99.90
2022-08-31T21:43:36.917Z,99.90
2022-08-31T21:46:04.539Z,99.90
2022-08-31T21:48:32.108Z,99.90
2022-08-31T21:50:59.681Z,99.90
2022-08-31T21:53:27.325Z,99.90
2022-08-31T21:55:55.216Z,99.90
2022-08-31T21:58:22.791Z,99.90
2022-08-31T22:00:50.364Z,99.90
2022-08-31T22:03:18.854Z,99.90
2022-08-31T22:05:46.319Z,99.90
2022-08-31T22:08:14.658Z,99.90
2022-08-31T22:10:43.427Z,99.90
2022-08-31T22:13:11.003Z,99.90
2022-08-31T22:15:38.690Z,99.90
2022-08-31T22:18:46.164Z,99.90
2022-08-31T22:20:37.712Z,99.90
2022-08-31T22:23:06.102Z,99.90
2022-08-31T22:25:33.672Z,99.90
2022-08-31T22:28:40.523Z,99.90
2022-08-31T22:31:09.215Z,99.90
2022-08-31T22:33:36.784Z,99.90
2022-08-31T22:36:04.348Z,99.90
2022-08-31T22:38:32.601Z,99.90
2022-08-31T22:41:03.736Z,99.90
2022-08-31T22:43:31.315Z,99.90
2022-08-31T22:45:59.715Z,99.90
2022-08-31T22:48:28.026Z,99.90
2022-08-31T22:50:55.622Z,99.90
2022-08-31T22:53:23.974Z,99.90
2022-08-31T22:55:51.547Z,99.90
2022-08-31T22:58:19.278Z,99.90
2022-08-31T23:00:47.516Z,99.90
2022-08-31T23:03:15.091Z,99.90
2022-08-31T23:05:42.672Z,99.90
2022-08-31T23:08:10.285Z,99.90
2022-08-31T23:10:38.626Z,99.90
2022-08-31T23:13:06.206Z,99.90
2022-08-31T23:15:33.931Z,99.90
2022-08-31T23:18:02.235Z,99.90
2022-08-31T23:20:29.821Z,99.90
2022-08-31T23:22:57.474Z,99.90
2022-08-31T23:25:25.817Z,99.90
2022-08-31T23:27:53.419Z,99.90
2022-08-31T23:30:21.032Z,99.90
2022-08-31T23:32:48.608Z,99.90
2022-08-31T23:35:16.181Z,99.90
2022-08-31T23:37:44.573Z,99.90
2022-08-31T23:40:13.000Z,99.90
2022-08-31T23:42:40.508Z,99.90
2022-08-31T23:45:08.948Z,99.90
2022-08-31T23:47:36.552Z,99.90
2022-08-31T23:50:04.963Z,99.90
2022-08-31T23:52:32.577Z,99.90
2022-08-31T23:55:00.919Z,99.90
2022-08-31T23:57:32.343Z,99.90
